createdAt,value
2023-04-23T00:02:13.985Z,11.70
2023-04-23T00:05:06.280Z,11.65
2023-04-23T00:07:52.760Z,11.64
2023-04-23T00:10:39.188Z,11.61
2023-04-23T00:13:25.379Z,11.59
2023-04-23T00:16:12.253Z,11.58
2023-04-23T00:18:58.305Z,11.55
2023-04-23T00:21:44.019Z,11.55
2023-04-23T00:24:31.873Z,11.56
2023-04-23T00:27:18.354Z,11.54
2023-04-23T00:30:05.375Z,11.44
2023-04-23T00:32:51.145Z,11.49
2023-04-23T00:35:36.956Z,11.50
2023-04-23T00:38:22.705Z,11.52
2023-04-23T00:41:09.019Z,11.51
2023-04-23T00:43:57.954Z,11.53
2023-04-23T00:46:44.128Z,11.50
2023-04-23T00:49:30.288Z,11.53
2023-04-23T00:52:16.692Z,11.53
2023-04-23T00:55:03.040Z,11.50
2023-04-23T00:57:49.244Z,11.48
2023-04-23T01:00:40.791Z,11.46
2023-04-23T01:03:27.360Z,11.49
2023-04-23T01:06:13.475Z,11.42
2023-04-23T01:08:59.978Z,11.40
2023-04-23T01:11:47.448Z,11.27
2023-04-23T01:14:33.806Z,11.25
2023-04-23T01:17:19.852Z,11.15
2023-04-23T01:20:06.719Z,11.13
2023-04-23T01:22:53.266Z,11.05
2023-04-23T01:25:39.187Z,11.05
2023-04-23T01:28:25.344Z,11.00
2023-04-23T01:31:11.627Z,10.94
2023-04-23T01:33:59.286Z,10.92
2023-04-23T01:36:45.616Z,10.83
2023-04-23T01:39:31.574Z,10.78
2023-04-23T01:42:17.821Z,10.74
2023-04-23T01:45:03.912Z,10.65
2023-04-23T01:47:50.725Z,10.62
2023-04-23T01:50:36.644Z,10.56
2023-04-23T01:53:22.700Z,10.48
2023-04-23T01:56:10.961Z,10.50
2023-04-23T01:58:57.208Z,10.38
2023-04-23T02:01:47.294Z,10.35
2023-04-23T02:04:34.423Z,10.33
2023-04-23T02:07:20.558Z,10.30
2023-04-23T02:10:08.256Z,10.24
2023-04-23T02:12:54.089Z,10.18
2023-04-23T02:15:40.721Z,10.09
2023-04-23T02:18:26.548Z,10.07
2023-04-23T02:21:13.227Z,10.04
2023-04-23T02:23:59.173Z,10.00
2023-04-23T02:26:44.883Z,9.98
2023-04-23T02:29:30.845Z,9.96
2023-04-23T02:32:16.760Z,9.92
2023-04-23T02:35:03.015Z,9.88
2023-04-23T02:37:48.933Z,9.86
2023-04-23T02:40:34.782Z,9.85
2023-04-23T02:43:20.647Z,9.83
2023-04-23T02:46:09.670Z,9.83
2023-04-23T02:48:55.712Z,9.78
2023-04-23T02:51:42.147Z,9.79
2023-04-23T02:54:28.399Z,9.69
2023-04-23T02:57:15.677Z,9.69
2023-04-23T03:00:01.755Z,9.66
2023-04-23T03:02:54.657Z,9.60
2023-04-23T03:05:41.098Z,9.65
2023-04-23T03:08:27.989Z,9.61
2023-04-23T03:11:13.862Z,9.64
2023-04-23T03:13:59.733Z,9.61
2023-04-23T03:16:45.523Z,9.63
2023-04-23T03:19:31.403Z,9.60
2023-04-23T03:22:18.312Z,9.61
2023-04-23T03:25:04.255Z,9.59
2023-04-23T03:27:50.387Z,9.58
2023-04-23T03:30:36.582Z,9.56
2023-04-23T03:33:22.501Z,9.54
2023-04-23T03:36:08.527Z,9.50
2023-04-23T03:38:54.492Z,9.51
2023-04-23T03:41:41.324Z,9.48
2023-04-23T03:44:29.542Z,9.43
2023-04-23T03:47:15.139Z,9.40
2023-04-23T03:50:01.704Z,9.41
2023-04-23T03:52:48.798Z,9.38
2023-04-23T03:55:48.071Z,9.35
2023-04-23T03:58:34.484Z,9.32
2023-04-23T04:01:20.551Z,9.22
2023-04-23T04:04:06.822Z,9.20
2023-04-23T04:06:53.200Z,9.13
2023-04-23T04:09:41.340Z,9.13
2023-04-23T04:12:27.500Z,9.12
2023-04-23T04:15:14.353Z,9.10
2023-04-23T04:18:01.357Z,9.10
2023-04-23T04:20:47.345Z,9.09
2023-04-23T04:23:35.082Z,9.13
2023-04-23T04:26:20.863Z,9.11
2023-04-23T04:29:06.858Z,9.17
2023-04-23T04:31:55.219Z,9.17
2023-04-23T04:34:41.417Z,9.19
2023-04-23T04:37:28.285Z,9.18
2023-04-23T04:40:14.912Z,9.22
2023-04-23T04:43:00.932Z,9.23
2023-04-23T04:45:46.679Z,9.27
2023-04-23T04:48:32.366Z,9.27
2023-04-23T04:51:18.511Z,9.28
2023-04-23T04:54:04.859Z,9.28
2023-04-23T04:56:50.614Z,9.31
2023-04-23T04:59:36.248Z,9.37
2023-04-23T05:02:23.588Z,9.38
2023-04-23T05:05:09.824Z,9.40
2023-04-23T05:07:55.672Z,9.42
2023-04-23T05:10:41.889Z,9.45
2023-04-23T05:13:27.741Z,9.45
2023-04-23T05:16:14.184Z,9.58
2023-04-23T05:19:00.413Z,9.60
2023-04-23T05:21:46.443Z,9.63
2023-04-23T05:24:32.761Z,9.67
2023-04-23T05:27:19.223Z,9.71
2023-04-23T05:30:08.244Z,9.75
2023-04-23T05:32:53.956Z,9.76
2023-04-23T05:35:39.697Z,9.84
2023-04-23T05:38:25.425Z,9.86
2023-04-23T05:41:11.463Z,9.91
2023-04-23T05:43:57.364Z,9.95
2023-04-23T05:46:43.306Z,9.98
2023-04-23T05:49:29.165Z,10.03
2023-04-23T05:52:15.059Z,10.08
2023-04-23T05:55:01.019Z,10.15
2023-04-23T05:57:47.595Z,10.18
2023-04-23T06:00:35.522Z,10.23
2023-04-23T06:03:21.970Z,10.30
2023-04-23T06:06:08.187Z,10.36
2023-04-23T06:08:54.211Z,10.39
2023-04-23T06:11:40.271Z,10.43
2023-04-23T06:14:26.327Z,10.49
2023-04-23T06:17:12.098Z,10.55
2023-04-23T06:19:58.203Z,10.62
2023-04-23T06:22:45.290Z,10.66
2023-04-23T06:25:31.381Z,10.71
2023-04-23T06:28:17.390Z,10.80
2023-04-23T06:31:23.644Z,10.85
2023-04-23T06:34:09.756Z,10.93
2023-04-23T06:36:55.801Z,10.99
2023-04-23T06:39:41.616Z,11.06
2023-04-23T06:42:27.500Z,11.13
2023-04-23T06:45:36.484Z,11.16
2023-04-23T06:48:22.945Z,11.23
2023-04-23T06:51:08.696Z,11.29
2023-04-23T06:53:54.878Z,11.37
2023-04-23T06:56:40.873Z,11.41
2023-04-23T06:59:26.812Z,11.47
2023-04-23T07:02:15.164Z,11.52
2023-04-23T07:05:01.498Z,11.57
2023-04-23T07:07:48.601Z,11.62
2023-04-23T07:10:34.635Z,11.71
2023-04-23T07:13:20.464Z,11.78
2023-04-23T07:16:06.768Z,11.84
2023-04-23T07:18:52.808Z,11.89
2023-04-23T07:21:38.693Z,11.98
2023-04-23T07:24:26.578Z,12.02
2023-04-23T07:27:12.409Z,12.13
2023-04-23T07:29:58.439Z,12.18
2023-04-23T07:32:44.512Z,12.26
2023-04-23T07:35:30.567Z,12.30
2023-04-23T07:38:16.321Z,12.33
2023-04-23T07:41:02.354Z,12.44
2023-04-23T07:43:48.191Z,12.43
2023-04-23T07:46:34.657Z,12.58
2023-04-23T07:49:21.244Z,12.67
2023-04-23T07:52:08.302Z,12.76
2023-04-23T07:54:54.450Z,12.83
2023-04-23T07:57:40.339Z,12.90
2023-04-23T08:00:26.451Z,13.02
2023-04-23T08:03:12.424Z,13.11
2023-04-23T08:05:58.369Z,13.23
2023-04-23T08:08:44.902Z,13.33
2023-04-23T08:11:30.675Z,13.43
2023-04-23T08:14:17.715Z,13.57
2023-04-23T08:17:03.618Z,13.70
2023-04-23T08:19:49.641Z,13.81
2023-04-23T08:22:35.599Z,13.85
2023-04-23T08:25:24.368Z,14.02
2023-04-23T08:28:10.213Z,14.17
2023-04-23T08:30:56.470Z,14.27
2023-04-23T08:33:42.953Z,14.40
2023-04-23T08:37:45.649Z,14.50
2023-04-23T08:40:37.893Z,14.64
2023-04-23T08:43:30.373Z,14.70
2023-04-23T08:46:24.813Z,14.90
2023-04-23T08:49:16.543Z,15.01
2023-04-23T08:53:02.849Z,15.03
2023-04-23T08:56:00.753Z,15.20
2023-04-23T08:58:47.479Z,15.35
2023-04-23T09:01:34.062Z,15.43
2023-04-23T09:04:23.939Z,15.57
2023-04-23T09:08:18.508Z,15.68
2023-04-23T09:11:05.670Z,15.87
2023-04-23T09:13:51.565Z,15.99
2023-04-23T09:25:53.518Z,16.62
2023-04-23T09:28:39.684Z,16.73
2023-04-23T09:37:23.798Z,17.13
2023-04-23T09:40:10.646Z,17.27
2023-04-23T09:42:56.764Z,17.44
2023-04-23T09:50:22.061Z,17.82
2023-04-23T09:58:04.091Z,18.24
2023-04-23T10:00:50.064Z,18.48
2023-04-23T10:03:46.904Z,18.64
2023-04-23T10:09:32.726Z,18.92
2023-04-23T10:12:41.001Z,19.04
2023-04-23T10:15:28.379Z,19.17
2023-04-23T10:18:17.618Z,19.28
2023-04-23T10:21:08.245Z,19.40
2023-04-23T10:23:54.393Z,19.58
2023-04-23T10:26:42.618Z,19.77
2023-04-23T10:29:30.860Z,19.90
2023-04-23T10:32:17.736Z,20.06
2023-04-23T10:35:04.424Z,20.11
2023-04-23T10:38:25.297Z,20.15
2023-04-23T10:41:11.180Z,20.25
2023-04-23T10:43:57.896Z,20.38
2023-04-23T10:47:25.406Z,20.55
2023-04-23T10:50:37.843Z,20.80
2023-04-23T10:53:25.572Z,21.08
2023-04-23T10:56:11.817Z,21.34
2023-04-23T10:58:57.974Z,21.54
2023-04-23T11:01:50.308Z,21.78
2023-04-23T11:04:55.197Z,22.04
2023-04-23T11:08:24.622Z,22.37
2023-04-23T11:11:10.584Z,22.80
2023-04-23T11:13:57.314Z,23.20
2023-04-23T11:16:44.802Z,23.66
2023-04-23T11:19:31.897Z,24.07
2023-04-23T11:22:18.659Z,24.48
2023-04-23T11:25:06.662Z,24.94
2023-04-23T11:27:53.674Z,25.42
2023-04-23T11:30:39.768Z,25.83
2023-04-23T11:33:26.115Z,26.22
2023-04-23T11:36:12.671Z,26.76
2023-04-23T11:44:08.609Z,28.15
2023-04-23T11:46:55.840Z,28.66
2023-04-23T11:49:45.037Z,29.09
2023-04-23T11:52:44.026Z,29.49
2023-04-23T11:55:30.430Z,29.87
2023-04-23T11:58:19.615Z,30.04
2023-04-23T12:01:05.878Z,29.90
2023-04-23T12:03:52.625Z,29.65
2023-04-23T12:06:40.090Z,29.71
2023-04-23T12:10:10.687Z,29.88
2023-04-23T12:12:58.548Z,30.25
2023-04-23T12:16:14.874Z,30.65
2023-04-23T12:19:02.139Z,31.20
2023-04-23T12:21:54.874Z,31.64
2023-04-23T12:24:55.313Z,32.15
2023-04-23T12:27:42.901Z,32.64
2023-04-23T12:31:04.937Z,33.10
2023-04-23T12:33:59.452Z,33.40
2023-04-23T12:36:47.512Z,33.67
2023-04-23T12:39:35.127Z,33.62
2023-04-23T12:42:20.936Z,33.29
2023-04-23T12:50:05.902Z,32.21
2023-04-23T12:52:52.157Z,31.67
2023-04-23T12:55:50.404Z,31.05
2023-04-23T12:58:36.524Z,30.46
2023-04-23T13:01:22.209Z,29.88
2023-04-23T13:04:08.265Z,29.32
2023-04-23T13:06:54.741Z,28.73
2023-04-23T13:09:40.927Z,28.22
2023-04-23T13:12:27.369Z,27.77
2023-04-23T13:15:13.521Z,27.39
2023-04-23T13:17:59.338Z,27.12
2023-04-23T13:20:45.524Z,26.91
2023-04-23T13:23:32.138Z,26.73
2023-04-23T13:26:18.189Z,26.88
2023-04-23T13:29:04.490Z,27.21
2023-04-23T13:31:51.352Z,27.76
2023-04-23T13:34:37.494Z,28.41
2023-04-23T13:37:24.533Z,29.02
2023-04-23T13:40:11.648Z,29.61
2023-04-23T13:42:57.414Z,30.12
2023-04-23T13:46:52.551Z,30.56
2023-04-23T13:49:39.517Z,30.96
2023-04-23T13:52:25.775Z,31.60
2023-04-23T13:55:11.952Z,32.06
2023-04-23T13:57:59.031Z,32.48
2023-04-23T14:00:45.946Z,32.92
2023-04-23T14:03:32.047Z,33.28
2023-04-23T14:06:18.318Z,33.53
2023-04-23T14:09:04.698Z,33.70
2023-04-23T14:11:50.737Z,33.96
2023-04-23T14:14:36.942Z,34.13
2023-04-23T14:17:22.829Z,34.13
2023-04-23T14:20:09.434Z,34.17
2023-04-23T14:23:04.524Z,34.26
2023-04-23T14:25:58.898Z,34.33
2023-04-23T14:28:46.277Z,34.37
2023-04-23T14:31:32.255Z,34.35
2023-04-23T14:34:18.180Z,34.01
2023-04-23T14:37:04.284Z,33.46
2023-04-23T14:39:50.540Z,33.29
2023-04-23T14:42:36.324Z,33.36
2023-04-23T14:45:22.141Z,33.63
2023-04-23T14:48:07.838Z,34.17
2023-04-23T14:50:53.474Z,34.67
2023-04-23T14:53:39.449Z,35.16
2023-04-23T14:56:25.678Z,35.62
2023-04-23T14:59:11.500Z,36.04
2023-04-23T15:01:57.893Z,36.33
2023-04-23T15:04:43.899Z,36.47
2023-04-23T15:07:31.742Z,36.60
2023-04-23T15:10:17.911Z,36.66
2023-04-23T15:13:08.491Z,36.56
2023-04-23T15:16:02.519Z,36.02
2023-04-23T15:18:48.224Z,35.14
2023-04-23T15:21:33.982Z,34.16
2023-04-23T15:24:21.267Z,33.29
2023-04-23T15:27:21.197Z,32.54
2023-04-23T15:30:12.910Z,31.82
2023-04-23T15:33:00.551Z,31.17
2023-04-23T15:36:00.032Z,30.60
2023-04-23T15:38:46.781Z,30.12
2023-04-23T15:41:48.422Z,29.71
2023-04-23T15:44:40.301Z,29.25
2023-04-23T15:47:26.387Z,29.21
2023-04-23T15:50:13.182Z,29.19
2023-04-23T15:53:01.448Z,29.05
2023-04-23T15:55:47.342Z,28.72
2023-04-23T15:58:33.181Z,28.43
2023-04-23T16:01:20.008Z,28.13
2023-04-23T16:04:10.855Z,27.81
2023-04-23T16:06:57.493Z,27.45
2023-04-23T16:09:45.664Z,27.16
2023-04-23T16:12:32.833Z,26.87
2023-04-23T16:15:19.273Z,26.56
2023-04-23T16:18:06.337Z,26.24
2023-04-23T16:20:52.758Z,25.96
2023-04-23T16:23:38.613Z,25.71
2023-04-23T16:26:25.062Z,25.42
2023-04-23T16:29:33.143Z,25.12
2023-04-23T16:32:19.246Z,24.82
2023-04-23T16:35:05.469Z,24.64
2023-04-23T16:37:51.406Z,24.46
2023-04-23T16:40:39.657Z,24.30
2023-04-23T16:43:25.762Z,24.14
2023-04-23T16:46:12.005Z,23.98
2023-04-23T16:48:58.187Z,23.87
2023-04-23T16:51:44.245Z,23.70
2023-04-23T16:54:30.836Z,23.58
2023-04-23T16:57:17.733Z,23.39
2023-04-23T17:00:05.406Z,23.27
2023-04-23T17:02:54.083Z,23.15
2023-04-23T17:05:40.998Z,23.04
2023-04-23T17:08:28.681Z,22.92
2023-04-23T17:11:15.030Z,22.81
2023-04-23T17:14:01.303Z,22.72
2023-04-23T17:16:47.046Z,22.67
2023-04-23T17:19:33.918Z,22.58
2023-04-23T17:22:20.092Z,22.46
2023-04-23T17:25:06.545Z,22.39
2023-04-23T17:27:52.607Z,22.26
2023-04-23T17:30:38.491Z,22.17
2023-04-23T17:33:24.754Z,22.12
2023-04-23T17:36:10.839Z,21.99
2023-04-23T17:38:56.813Z,21.92
2023-04-23T17:41:42.718Z,21.80
2023-04-23T17:44:29.187Z,21.67
2023-04-23T17:47:14.883Z,21.62
2023-04-23T17:50:00.871Z,21.54
2023-04-23T17:52:47.087Z,21.44
2023-04-23T17:55:33.361Z,21.35
2023-04-23T17:58:21.383Z,21.27
2023-04-23T18:01:09.201Z,21.20
2023-04-23T18:03:55.895Z,21.10
2023-04-23T18:06:41.879Z,21.02
2023-04-23T18:09:27.825Z,20.95
2023-04-23T18:12:13.512Z,20.89
2023-04-23T18:14:59.654Z,20.83
2023-04-23T18:17:45.597Z,20.77
2023-04-23T18:20:35.107Z,20.74
2023-04-23T18:23:22.307Z,20.70
2023-04-23T18:26:08.176Z,20.67
2023-04-23T18:28:54.233Z,20.62
2023-04-23T18:31:40.180Z,20.60
2023-04-23T18:34:33.199Z,20.53
2023-04-23T18:37:44.019Z,20.48
2023-04-23T18:40:30.547Z,20.43
2023-04-23T18:43:16.493Z,20.37
2023-04-23T18:46:03.943Z,20.35
2023-04-23T18:48:59.545Z,20.28
2023-04-23T18:51:51.090Z,20.20
2023-04-23T18:54:37.173Z,20.17
2023-04-23T18:57:23.359Z,20.14
2023-04-23T19:00:09.734Z,20.07
2023-04-23T19:02:56.076Z,20.03
2023-04-23T19:05:41.982Z,19.91
2023-04-23T19:08:30.746Z,19.88
2023-04-23T19:11:17.117Z,19.77
2023-04-23T19:14:03.143Z,19.65
2023-04-23T19:16:51.002Z,19.56
2023-04-23T19:19:37.148Z,19.48
2023-04-23T19:22:25.768Z,19.42
2023-04-23T19:25:11.550Z,19.35
2023-04-23T19:27:57.554Z,19.28
2023-04-23T19:30:43.560Z,19.27
2023-04-23T19:33:29.653Z,19.24
2023-04-23T19:36:15.769Z,19.18
2023-04-23T19:39:02.357Z,19.16
2023-04-23T19:41:48.153Z,19.11
2023-04-23T19:44:34.160Z,19.09
2023-04-23T19:47:20.355Z,19.01
2023-04-23T19:50:07.493Z,18.99
2023-04-23T19:52:53.760Z,18.95
2023-04-23T19:55:39.731Z,18.90
2023-04-23T19:58:25.783Z,18.88
2023-04-23T20:01:13.135Z,18.84
2023-04-23T20:03:59.153Z,18.79
2023-04-23T20:06:46.324Z,18.77
2023-04-23T20:09:32.383Z,18.73
2023-04-23T20:12:20.207Z,18.68
2023-04-23T20:15:13.856Z,18.62
2023-04-23T20:18:00.560Z,18.53
2023-04-23T20:20:47.353Z,18.51
2023-04-23T20:23:33.087Z,18.48
2023-04-23T20:26:19.866Z,18.46
2023-04-23T20:29:06.517Z,18.42
2023-04-23T20:31:52.266Z,18.35
2023-04-23T20:34:38.177Z,18.34
2023-04-23T20:37:27.144Z,18.32
2023-04-23T20:40:14.524Z,18.28
2023-04-23T20:43:01.050Z,18.22
2023-04-23T20:45:46.888Z,18.18
2023-04-23T20:48:33.842Z,18.13
2023-04-23T20:51:20.435Z,18.05
2023-04-23T20:54:06.317Z,17.95
2023-04-23T20:56:54.290Z,17.88
2023-04-23T20:59:40.247Z,17.80
2023-04-23T21:02:26.444Z,17.78
2023-04-23T21:05:12.684Z,17.75
2023-04-23T21:07:58.871Z,17.71
2023-04-23T21:10:45.160Z,17.66
2023-04-23T21:13:30.995Z,17.64
2023-04-23T21:16:16.991Z,17.57
2023-04-23T21:19:04.082Z,17.53
2023-04-23T21:21:50.095Z,17.50
2023-04-23T21:24:35.835Z,17.42
2023-04-23T21:27:22.154Z,17.38
2023-04-23T21:30:25.491Z,17.26
2023-04-23T21:33:11.270Z,17.28
2023-04-23T21:35:57.171Z,17.24
2023-04-23T21:38:43.235Z,17.20
2023-04-23T21:41:29.117Z,17.14
2023-04-23T21:44:15.184Z,17.14
2023-04-23T21:47:01.389Z,17.10
2023-04-23T21:49:49.066Z,17.05
2023-04-23T21:52:35.515Z,16.95
2023-04-23T21:55:21.412Z,16.85
2023-04-23T21:58:24.182Z,16.82
2023-04-23T22:01:10.115Z,16.77
2023-04-23T22:03:56.358Z,16.70
2023-04-23T22:06:42.438Z,16.69
2023-04-23T22:09:28.533Z,16.63
2023-04-23T22:12:14.568Z,16.57
2023-04-23T22:15:00.752Z,16.49
2023-04-23T22:17:50.430Z,16.50
2023-04-23T22:20:37.828Z,16.44
2023-04-23T22:23:23.695Z,16.44
2023-04-23T22:26:09.450Z,16.42
2023-04-23T22:28:55.866Z,16.41
2023-04-23T22:31:41.797Z,16.39
2023-04-23T22:34:27.862Z,16.38
2023-04-23T22:37:17.220Z,16.34
2023-04-23T22:40:04.366Z,16.30
2023-04-23T22:43:15.770Z,16.26
2023-04-23T22:50:40.163Z,16.28
2023-04-23T22:58:12.564Z,16.26
2023-04-23T23:00:58.660Z,16.27
2023-04-23T23:03:44.412Z,16.29
2023-04-23T23:06:30.456Z,16.33
2023-04-23T23:09:46.488Z,16.33
2023-04-23T23:12:32.200Z,16.37
2023-04-23T23:15:17.892Z,16.39
2023-04-23T23:22:41.908Z,16.39
2023-04-23T23:25:28.304Z,16.41
2023-04-23T23:28:14.552Z,16.44
2023-04-23T23:31:01.905Z,16.41
2023-04-23T23:35:02.243Z,16.41
2023-04-23T23:43:36.238Z,16.35
2023-04-23T23:46:22.773Z,16.36
2023-04-23T23:49:08.723Z,16.31
2023-04-23T23:51:55.260Z,16.34
2023-04-23T23:54:58.651Z,16.28
2023-04-23T23:57:51.550Z,16.24
